createdAt,value
2019-01-22T00:01:40.441Z,19.90
2019-01-22T00:06:44.501Z,20.73
2019-01-22T00:11:48.249Z,20.93
2019-01-22T00:16:52.575Z,20.60
2019-01-22T00:21:56.818Z,20.80
2019-01-22T00:27:00.733Z,20.70
2019-01-22T00:32:04.563Z,19.20
2019-01-22T00:37:08.702Z,20.03
2019-01-22T00:42:12.393Z,20.57
2019-01-22T00:47:16.525Z,18.97
2019-01-22T00:52:20.281Z,19.50
2019-01-22T00:57:25.977Z,19.33
2019-01-22T01:02:29.532Z,19.17
2019-01-22T01:07:33.347Z,19.60
2019-01-22T01:12:37.674Z,18.13
2019-01-22T01:17:41.492Z,18.80
2019-01-22T01:22:45.261Z,19.33
2019-01-22T01:27:49.051Z,18.67
2019-01-22T01:32:53.270Z,18.50
2019-01-22T01:37:57.007Z,18.17
2019-01-22T01:43:00.777Z,17.67
2019-01-22T01:48:04.538Z,16.83
2019-01-22T01:53:08.283Z,17.87
2019-01-22T01:58:12.161Z,16.97
2019-01-22T02:03:15.907Z,17.80
2019-01-22T02:08:19.712Z,16.63
2019-01-22T02:13:33.188Z,17.57
2019-01-22T02:18:54.274Z,18.03
2019-01-22T02:24:24.408Z,17.37
2019-01-22T02:29:51.807Z,16.40
2019-01-22T02:35:01.466Z,15.80
2019-01-22T02:40:19.710Z,16.53
2019-01-22T02:46:06.172Z,16.00
2019-01-22T02:51:40.510Z,16.47
2019-01-22T02:57:07.366Z,15.93
2019-01-22T03:02:59.744Z,15.57
2019-01-22T03:08:54.988Z,14.70
2019-01-22T03:14:34.883Z,15.37
2019-01-22T03:20:13.376Z,15.33
2019-01-22T03:25:48.725Z,15.63
2019-01-22T03:31:29.025Z,14.80
2019-01-22T03:37:14.481Z,14.60
2019-01-22T03:42:26.808Z,15.03
2019-01-22T03:47:58.313Z,13.83
2019-01-22T03:53:53.683Z,15.20
2019-01-22T03:58:54.048Z,14.90
2019-01-22T04:03:57.845Z,14.90
2019-01-22T04:09:09.130Z,15.60
2019-01-22T04:14:12.944Z,13.90
2019-01-22T04:19:18.734Z,14.63
2019-01-22T04:25:06.590Z,14.60
2019-01-22T04:30:46.676Z,14.60
2019-01-22T04:36:27.331Z,15.27
2019-01-22T04:41:59.409Z,14.13
2019-01-22T04:47:53.699Z,13.30
2019-01-22T04:53:18.548Z,14.77
2019-01-22T04:58:47.978Z,13.50
2019-01-22T05:04:46.912Z,13.97
2019-01-22T05:10:25.334Z,13.70
2019-01-22T05:16:06.615Z,14.40
2019-01-22T05:21:32.623Z,14.43
2019-01-22T05:27:06.074Z,14.70
2019-01-22T05:32:34.982Z,14.07
2019-01-22T05:37:53.748Z,15.47
2019-01-22T05:43:25.296Z,14.93
2019-01-22T05:49:13.857Z,16.27
2019-01-22T05:55:04.875Z,15.00
2019-01-22T06:00:51.814Z,16.10
2019-01-22T06:06:08.604Z,15.47
2019-01-22T06:11:49.929Z,15.03
2019-01-22T06:17:33.747Z,16.13
2019-01-22T06:23:06.126Z,17.30
2019-01-22T06:29:03.490Z,17.43
2019-01-22T06:34:31.822Z,17.43
2019-01-22T06:39:59.811Z,16.50
2019-01-22T06:45:35.099Z,17.27
2019-01-22T06:50:49.453Z,16.67
2019-01-22T06:56:27.587Z,16.57
2019-01-22T07:02:12.795Z,17.27
2019-01-22T07:07:30.777Z,16.80
2019-01-22T07:13:09.284Z,17.17
2019-01-22T07:18:44.535Z,16.53
2019-01-22T07:24:36.004Z,15.33
2019-01-22T07:30:21.588Z,19.00
2019-01-22T07:35:29.865Z,17.10
2019-01-22T07:41:34.097Z,17.33
2019-01-22T07:47:12.837Z,15.30
2019-01-22T07:52:58.094Z,15.27
2019-01-22T07:58:29.224Z,14.80
2019-01-22T08:04:38.789Z,15.17
2019-01-22T08:10:27.107Z,13.97
2019-01-22T08:15:44.383Z,13.50
2019-01-22T08:21:20.227Z,13.67
2019-01-22T08:26:50.743Z,14.33
2019-01-22T08:32:33.574Z,13.50
2019-01-22T08:38:14.102Z,14.77
2019-01-22T08:43:29.017Z,14.60
2019-01-22T08:48:50.597Z,13.37
2019-01-22T08:54:53.086Z,14.47
2019-01-22T09:00:03.772Z,14.87
2019-01-22T09:05:33.766Z,15.13
2019-01-22T09:10:51.788Z,13.73
2019-01-22T09:16:24.072Z,14.33
2019-01-22T09:21:59.152Z,14.17
2019-01-22T09:27:21.013Z,14.70
2019-01-22T09:32:50.052Z,13.17
2019-01-22T09:38:00.592Z,13.47
2019-01-22T09:43:04.298Z,13.27
2019-01-22T09:48:08.014Z,13.87
2019-01-22T09:53:11.827Z,13.83
2019-01-22T09:58:15.595Z,14.17
2019-01-22T10:03:19.511Z,14.03
2019-01-22T10:08:23.346Z,13.60
2019-01-22T10:13:27.158Z,13.53
2019-01-22T10:18:30.965Z,12.40
2019-01-22T10:23:34.700Z,12.60
2019-01-22T10:28:38.431Z,13.10
2019-01-22T10:33:42.279Z,11.93
2019-01-22T10:38:46.046Z,13.37
2019-01-22T10:43:49.792Z,12.53
2019-01-22T10:48:53.633Z,13.07
2019-01-22T10:53:57.457Z,11.80
2019-01-22T10:59:01.630Z,12.43
2019-01-22T11:04:05.316Z,12.20
2019-01-22T11:09:09.110Z,11.07
2019-01-22T11:14:12.912Z,12.33
2019-01-22T11:19:17.005Z,11.60
2019-01-22T11:24:20.778Z,11.70
2019-01-22T11:29:24.579Z,11.63
2019-01-22T11:34:28.284Z,12.57
2019-01-22T11:39:32.316Z,11.47
2019-01-22T11:44:36.230Z,11.63
2019-01-22T11:49:39.889Z,11.70
2019-01-22T11:54:43.666Z,10.70
2019-01-22T11:59:47.371Z,12.20
2019-01-22T12:04:51.461Z,11.63
2019-01-22T12:09:55.740Z,12.40
2019-01-22T12:14:59.647Z,10.77
2019-01-22T12:20:04.339Z,11.50
2019-01-22T12:25:08.177Z,11.40
2019-01-22T12:30:15.546Z,10.87
2019-01-22T12:35:19.578Z,12.40
2019-01-22T12:40:23.731Z,11.40
2019-01-22T12:45:32.330Z,10.80
2019-01-22T12:50:36.188Z,11.23
2019-01-22T12:55:39.941Z,11.13
2019-01-22T13:00:44.799Z,11.90
2019-01-22T13:05:58.233Z,10.63
2019-01-22T13:11:02.132Z,11.30
2019-01-22T13:16:05.889Z,10.73
2019-01-22T13:21:10.035Z,10.67
2019-01-22T13:26:13.751Z,10.83
2019-01-22T13:31:17.574Z,10.27
2019-01-22T13:36:21.361Z,10.93
2019-01-22T13:41:25.140Z,9.70
2019-01-22T13:46:29.044Z,11.37
2019-01-22T13:51:33.015Z,10.80
2019-01-22T13:56:36.747Z,10.93
2019-01-22T14:01:40.525Z,10.60
2019-01-22T14:06:44.349Z,10.70
2019-01-22T14:11:48.042Z,11.67
2019-01-22T14:16:51.852Z,11.37
2019-01-22T14:21:55.665Z,11.20
2019-01-22T14:26:59.652Z,11.20
2019-01-22T14:32:03.396Z,10.60
2019-01-22T14:37:07.604Z,10.17
2019-01-22T14:42:11.405Z,10.10
2019-01-22T14:47:15.173Z,11.13
2019-01-22T14:52:18.938Z,10.10
2019-01-22T14:57:22.688Z,11.50
2019-01-22T15:02:26.573Z,10.30
2019-01-22T15:07:30.660Z,10.90
2019-01-22T15:12:34.547Z,11.47
2019-01-22T15:17:38.539Z,10.17
2019-01-22T15:22:42.457Z,10.53
2019-01-22T15:27:46.304Z,10.77
2019-01-22T15:32:50.914Z,10.63
2019-01-22T15:37:55.379Z,9.40
2019-01-22T15:42:59.509Z,9.73
2019-01-22T15:48:03.369Z,9.70
2019-01-22T15:53:07.071Z,9.87
2019-01-22T15:58:10.877Z,10.67
2019-01-22T16:03:14.778Z,10.70
2019-01-22T16:08:18.619Z,9.67
2019-01-22T16:13:22.406Z,10.60
2019-01-22T16:18:26.649Z,10.17
2019-01-22T16:23:30.602Z,9.50
2019-01-22T16:28:34.353Z,10.60
2019-01-22T16:33:38.134Z,10.30
2019-01-22T16:38:41.850Z,9.80
2019-01-22T16:43:45.607Z,9.90
2019-01-22T16:48:49.459Z,10.00
2019-01-22T16:53:54.947Z,10.40
2019-01-22T16:58:58.682Z,10.07
2019-01-22T17:04:02.483Z,10.10
2019-01-22T17:09:08.336Z,9.20
2019-01-22T17:14:12.309Z,9.53
2019-01-22T17:19:16.106Z,9.70
2019-01-22T17:24:19.955Z,9.30
2019-01-22T17:29:24.252Z,10.20
2019-01-22T17:34:28.829Z,10.50
2019-01-22T17:39:32.649Z,10.50
2019-01-22T17:44:36.536Z,10.60
2019-01-22T17:49:40.299Z,10.77
2019-01-22T17:54:44.154Z,10.70
2019-01-22T17:59:47.964Z,11.90
2019-01-22T18:04:51.746Z,12.83
2019-01-22T18:09:56.224Z,12.90
2019-01-22T18:15:01.371Z,12.97
2019-01-22T18:20:07.506Z,12.60
2019-01-22T18:25:11.416Z,13.30
2019-01-22T18:30:20.233Z,13.00
2019-01-22T18:35:27.674Z,13.63
2019-01-22T18:40:31.756Z,14.77
2019-01-22T18:45:35.490Z,13.70
2019-01-22T18:50:39.310Z,14.10
2019-01-22T18:55:43.695Z,12.87
2019-01-22T19:00:47.563Z,15.03
2019-01-22T19:05:51.467Z,19.70
2019-01-22T19:10:55.491Z,24.67
2019-01-22T19:16:00.405Z,27.50
2019-01-22T19:21:04.171Z,30.77
2019-01-22T19:26:07.980Z,25.83
2019-01-22T19:31:13.516Z,24.57
2019-01-22T19:36:17.667Z,23.80
2019-01-22T19:41:21.808Z,23.30
2019-01-22T19:46:25.691Z,22.83
2019-01-22T19:51:31.407Z,26.67
2019-01-22T19:56:35.173Z,26.30
2019-01-22T20:01:39.227Z,35.07
2019-01-22T20:06:44.014Z,34.40
2019-01-22T20:11:47.821Z,38.90
2019-01-22T20:16:51.641Z,33.27
2019-01-22T20:21:55.403Z,37.23
2019-01-22T20:26:59.161Z,35.93
2019-01-22T20:32:02.924Z,30.90
2019-01-22T20:37:06.964Z,32.20
2019-01-22T20:42:11.034Z,31.17
2019-01-22T20:47:14.786Z,28.93
2019-01-22T20:52:18.688Z,27.40
2019-01-22T20:57:22.449Z,32.37
2019-01-22T21:02:26.257Z,26.00
2019-01-22T21:07:30.114Z,27.33
2019-01-22T21:12:33.875Z,26.57
2019-01-22T21:17:37.589Z,29.20
2019-01-22T21:22:41.435Z,25.90
2019-01-22T21:27:45.319Z,25.70
2019-01-22T21:32:50.170Z,28.37
2019-01-22T21:37:55.227Z,30.33
2019-01-22T21:42:59.087Z,28.20
2019-01-22T21:48:03.475Z,30.20
2019-01-22T21:53:07.341Z,32.70
2019-01-22T21:58:11.072Z,34.70
2019-01-22T22:03:14.955Z,36.10
2019-01-22T22:08:18.671Z,34.47
2019-01-22T22:13:22.444Z,31.90
2019-01-22T22:18:26.414Z,28.60
2019-01-22T22:23:30.364Z,27.60
2019-01-22T22:28:34.246Z,26.37
2019-01-22T22:33:38.381Z,24.60
2019-01-22T22:38:42.115Z,23.60
2019-01-22T22:43:46.908Z,23.00
2019-01-22T22:48:50.840Z,21.93
2019-01-22T22:53:54.660Z,22.60
2019-01-22T22:58:58.530Z,21.40
2019-01-22T23:04:02.280Z,22.67
2019-01-22T23:09:11.506Z,22.50
2019-01-22T23:14:15.226Z,23.03
2019-01-22T23:19:18.998Z,21.17
2019-01-22T23:24:22.792Z,21.97
2019-01-22T23:29:26.578Z,22.23
2019-01-22T23:34:30.360Z,20.60
2019-01-22T23:39:34.242Z,20.33
2019-01-22T23:44:37.932Z,22.00
2019-01-22T23:49:41.891Z,22.27
2019-01-22T23:54:45.626Z,20.07
2019-01-22T23:59:49.377Z,20.73
